createdAt,value
2018-08-10T00:00:01.163Z,0
2018-08-10T00:01:17.120Z,0
2018-08-10T00:02:33.016Z,0
2018-08-10T00:03:48.911Z,0
2018-08-10T00:05:04.849Z,0
2018-08-10T00:06:20.719Z,0
2018-08-10T00:07:36.749Z,0
2018-08-10T00:08:52.660Z,0
2018-08-10T00:10:08.518Z,0
2018-08-10T00:11:24.383Z,0
2018-08-10T00:12:40.369Z,0
2018-08-10T00:13:56.243Z,0
2018-08-10T00:15:13.252Z,0
2018-08-10T00:16:30.119Z,0
2018-08-10T00:17:46.042Z,0
2018-08-10T00:19:01.874Z,0
2018-08-10T00:20:17.929Z,0
2018-08-10T00:21:33.838Z,0
2018-08-10T00:22:49.713Z,0
2018-08-10T00:24:05.596Z,0
2018-08-10T00:25:21.472Z,0
2018-08-10T00:26:37.334Z,0
2018-08-10T00:27:53.249Z,0
2018-08-10T00:29:09.125Z,0
2018-08-10T00:30:24.998Z,0
2018-08-10T00:31:40.906Z,0
2018-08-10T00:32:56.780Z,0
2018-08-10T00:34:12.845Z,0
2018-08-10T00:35:28.782Z,0
2018-08-10T00:36:44.630Z,0
2018-08-10T00:38:00.578Z,0
2018-08-10T00:39:16.449Z,0
2018-08-10T00:40:32.339Z,0
2018-08-10T00:41:48.188Z,0
2018-08-10T00:43:04.043Z,0
2018-08-10T00:44:19.901Z,0
2018-08-10T00:45:35.838Z,0
2018-08-10T00:46:51.695Z,0
2018-08-10T00:48:07.598Z,0
2018-08-10T00:49:23.489Z,0
2018-08-10T00:50:39.370Z,0
2018-08-10T00:51:55.304Z,0
2018-08-10T00:53:11.239Z,0
2018-08-10T00:54:27.139Z,0
2018-08-10T00:55:43.038Z,0
2018-08-10T00:58:39.590Z,0
2018-08-10T00:59:55.459Z,0
2018-08-10T01:01:11.346Z,0
2018-08-10T01:02:27.235Z,0
2018-08-10T01:03:43.108Z,0
2018-08-10T01:04:58.970Z,0
2018-08-10T01:06:14.869Z,0
2018-08-10T01:07:30.741Z,0
2018-08-10T01:08:46.629Z,0
2018-08-10T01:10:02.501Z,0
2018-08-10T01:11:18.433Z,0
2018-08-10T01:12:34.359Z,0
2018-08-10T01:13:50.231Z,0
2018-08-10T01:15:06.105Z,0
2018-08-10T01:16:21.956Z,0
2018-08-10T01:17:37.883Z,0
2018-08-10T01:18:53.796Z,0
2018-08-10T01:20:09.716Z,0
2018-08-10T01:21:25.624Z,0
2018-08-10T01:22:41.626Z,0
2018-08-10T01:23:57.524Z,0
2018-08-10T01:25:13.423Z,0
2018-08-10T01:26:29.296Z,0
2018-08-10T01:27:45.272Z,0
2018-08-10T01:29:01.308Z,0
2018-08-10T01:30:18.087Z,0
2018-08-10T01:31:34.072Z,0
2018-08-10T01:32:50.945Z,0
2018-08-10T01:34:06.851Z,0
2018-08-10T01:35:22.849Z,0
2018-08-10T01:36:38.711Z,0
2018-08-10T01:37:54.590Z,0
2018-08-10T01:39:10.994Z,0
2018-08-10T01:40:27.019Z,0
2018-08-10T01:41:42.897Z,0
2018-08-10T01:42:58.776Z,0
2018-08-10T01:44:14.692Z,0
2018-08-10T01:45:30.748Z,0
2018-08-10T01:46:46.611Z,0
2018-08-10T01:48:02.508Z,0
2018-08-10T01:49:18.406Z,0
2018-08-10T01:50:34.316Z,0
2018-08-10T01:51:50.242Z,0
2018-08-10T01:53:06.123Z,0
2018-08-10T01:54:22.038Z,0
2018-08-10T01:55:37.947Z,0
2018-08-10T01:56:53.833Z,0
2018-08-10T01:58:09.697Z,0
2018-08-10T01:59:25.654Z,0
2018-08-10T02:00:41.603Z,0
2018-08-10T02:01:57.497Z,0
2018-08-10T02:03:13.351Z,0
2018-08-10T02:04:29.318Z,0
2018-08-10T02:05:45.218Z,0
2018-08-10T02:07:01.075Z,0
2018-08-10T02:08:16.931Z,0
2018-08-10T02:09:32.805Z,0
2018-08-10T02:10:48.661Z,0
2018-08-10T02:12:04.558Z,0
2018-08-10T02:13:20.469Z,0
2018-08-10T02:14:36.347Z,0
2018-08-10T02:15:52.215Z,0
2018-08-10T02:17:08.107Z,0
2018-08-10T02:18:24.013Z,0
2018-08-10T02:19:39.909Z,0
2018-08-10T02:20:55.823Z,0
2018-08-10T02:22:11.697Z,0
2018-08-10T02:23:28.546Z,0
2018-08-10T02:24:44.531Z,0
2018-08-10T02:26:00.417Z,0
2018-08-10T02:27:16.292Z,0
2018-08-10T02:28:32.291Z,0
2018-08-10T02:29:48.259Z,0
2018-08-10T02:31:04.152Z,0
2018-08-10T02:32:20.022Z,0
2018-08-10T02:33:35.896Z,0
2018-08-10T02:34:51.801Z,0
2018-08-10T02:36:07.659Z,0
2018-08-10T02:37:23.542Z,0
2018-08-10T02:38:39.428Z,0
2018-08-10T02:39:55.312Z,0
2018-08-10T02:41:11.176Z,0
2018-08-10T02:42:27.048Z,0
2018-08-10T02:43:42.908Z,0
2018-08-10T02:44:58.798Z,0
2018-08-10T02:46:14.656Z,0
2018-08-10T02:47:30.533Z,0
2018-08-10T02:48:46.432Z,0
2018-08-10T02:50:02.294Z,0
2018-08-10T02:51:18.183Z,0
2018-08-10T02:52:34.118Z,0
2018-08-10T02:53:50.079Z,0
2018-08-10T02:55:05.947Z,0
2018-08-10T02:56:21.810Z,0
2018-08-10T02:57:37.708Z,0
2018-08-10T02:58:53.606Z,0
2018-08-10T03:00:09.488Z,0
2018-08-10T03:01:25.394Z,0
2018-08-10T03:02:41.272Z,0
2018-08-10T03:03:57.183Z,0
2018-08-10T03:05:13.064Z,0
2018-08-10T03:06:28.978Z,0
2018-08-10T03:07:44.863Z,0
2018-08-10T03:09:00.710Z,0
2018-08-10T03:10:16.582Z,0
2018-08-10T03:11:32.472Z,0
2018-08-10T03:12:48.350Z,0
2018-08-10T03:14:04.259Z,0
2018-08-10T03:15:20.347Z,0
2018-08-10T03:16:36.209Z,0
2018-08-10T03:17:52.092Z,0
2018-08-10T03:19:07.947Z,0
2018-08-10T03:20:23.804Z,0
2018-08-10T03:21:39.685Z,0
2018-08-10T03:22:55.588Z,0
2018-08-10T03:24:11.424Z,0
2018-08-10T03:25:27.332Z,0
2018-08-10T03:26:43.209Z,0
2018-08-10T03:27:59.074Z,0
2018-08-10T03:29:14.931Z,0
2018-08-10T03:30:30.849Z,0
2018-08-10T03:31:46.703Z,0
2018-08-10T03:33:02.591Z,0
2018-08-10T03:34:18.438Z,0
2018-08-10T03:35:34.313Z,0
2018-08-10T03:36:50.169Z,0
2018-08-10T03:38:06.125Z,0
2018-08-10T03:39:22.022Z,0
2018-08-10T03:40:37.882Z,0
2018-08-10T03:41:53.766Z,0
2018-08-10T03:43:09.639Z,0
2018-08-10T03:46:06.163Z,0
2018-08-10T03:47:22.030Z,0
2018-08-10T03:48:37.912Z,0
2018-08-10T03:49:53.856Z,0
2018-08-10T03:51:09.721Z,0
2018-08-10T03:52:25.591Z,0
2018-08-10T03:53:41.515Z,0
2018-08-10T03:54:57.445Z,0
2018-08-10T03:56:13.342Z,0
2018-08-10T03:57:29.234Z,0
2018-08-10T03:58:45.119Z,0
2018-08-10T04:00:01.013Z,0
2018-08-10T04:01:16.887Z,0
2018-08-10T04:02:32.871Z,0
2018-08-10T04:03:48.903Z,0
2018-08-10T04:05:04.872Z,0
2018-08-10T04:06:20.790Z,0
2018-08-10T04:07:36.777Z,0
2018-08-10T04:08:52.869Z,0
2018-08-10T04:10:08.801Z,0
2018-08-10T04:11:24.776Z,0
2018-08-10T04:12:41.713Z,0
2018-08-10T04:13:58.667Z,0
2018-08-10T04:15:14.586Z,0
2018-08-10T04:16:30.463Z,0
2018-08-10T04:17:46.353Z,0
2018-08-10T04:19:02.248Z,0
2018-08-10T04:20:18.138Z,0
2018-08-10T04:21:34.022Z,0
2018-08-10T04:22:50.003Z,0
2018-08-10T04:24:05.931Z,0
2018-08-10T04:25:21.820Z,0
2018-08-10T04:26:37.704Z,0
2018-08-10T04:27:53.587Z,0
2018-08-10T04:29:09.453Z,0
2018-08-10T04:30:25.327Z,0
2018-08-10T04:31:41.226Z,0
2018-08-10T04:32:57.104Z,0
2018-08-10T04:34:13.044Z,0
2018-08-10T04:35:28.940Z,0
2018-08-10T04:36:44.801Z,0
2018-08-10T04:38:00.695Z,0
2018-08-10T04:39:16.606Z,5.625
2018-08-10T04:40:32.485Z,5.625
2018-08-10T04:41:48.347Z,5.625
2018-08-10T04:43:04.277Z,5.625
2018-08-10T04:44:20.167Z,5.625
2018-08-10T04:45:36.086Z,5.625
2018-08-10T04:46:51.962Z,5.625
2018-08-10T04:48:07.909Z,5.625
2018-08-10T04:49:23.731Z,5.625
2018-08-10T04:50:39.639Z,5.625
2018-08-10T04:51:55.571Z,5.625
2018-08-10T04:53:11.473Z,5.625
2018-08-10T04:54:27.371Z,5.625
2018-08-10T04:55:43.229Z,5.625
2018-08-10T04:56:59.110Z,5.625
2018-08-10T04:58:15.012Z,5.625
2018-08-10T04:59:30.955Z,5.625
2018-08-10T05:00:46.833Z,5.625
2018-08-10T05:02:02.865Z,5.625
2018-08-10T05:03:18.762Z,5.625
2018-08-10T05:04:34.654Z,5.625
2018-08-10T05:05:50.525Z,5.625
2018-08-10T05:07:06.593Z,11.25
2018-08-10T05:08:23.115Z,11.25
2018-08-10T05:09:39.051Z,11.25
2018-08-10T05:10:55.038Z,11.25
2018-08-10T05:12:10.940Z,16.875
2018-08-10T05:13:26.837Z,16.875
2018-08-10T05:14:42.714Z,16.875
2018-08-10T05:15:58.590Z,16.875
2018-08-10T05:17:14.478Z,16.875
2018-08-10T05:18:29.557Z,16.875
2018-08-10T05:21:26.092Z,16.875
2018-08-10T05:22:41.958Z,16.875
2018-08-10T05:23:57.870Z,16.875
2018-08-10T05:25:13.828Z,16.875
2018-08-10T05:26:29.800Z,22.5
2018-08-10T05:27:45.713Z,22.5
2018-08-10T05:29:01.591Z,22.5
2018-08-10T05:30:17.480Z,22.5
2018-08-10T05:31:33.400Z,22.5
2018-08-10T05:32:49.424Z,22.5
2018-08-10T05:34:05.350Z,22.5
2018-08-10T05:35:21.201Z,22.5
2018-08-10T05:36:37.181Z,28.125
2018-08-10T05:37:53.116Z,28.125
2018-08-10T05:39:08.946Z,28.125
2018-08-10T05:40:24.837Z,28.125
2018-08-10T05:41:40.748Z,28.125
2018-08-10T05:42:56.654Z,28.125
2018-08-10T05:44:12.563Z,28.125
2018-08-10T05:45:28.488Z,28.125
2018-08-10T05:46:44.408Z,28.125
2018-08-10T05:48:00.365Z,28.125
2018-08-10T05:49:16.180Z,28.125
2018-08-10T05:50:32.055Z,33.75
2018-08-10T05:51:47.929Z,33.75
2018-08-10T05:53:03.866Z,33.75
2018-08-10T05:54:19.787Z,39.375
2018-08-10T05:55:35.657Z,45
2018-08-10T05:56:51.553Z,45
2018-08-10T05:58:07.484Z,45
2018-08-10T05:59:23.367Z,50.625
2018-08-10T06:00:39.279Z,50.625
2018-08-10T06:01:55.212Z,50.625
2018-08-10T06:03:11.110Z,45
2018-08-10T06:04:26.934Z,45
2018-08-10T06:05:42.855Z,45
2018-08-10T06:06:58.776Z,50.625
2018-08-10T06:08:14.669Z,50.625
2018-08-10T06:09:30.528Z,56.25
2018-08-10T06:10:46.404Z,61.875
2018-08-10T06:12:02.288Z,61.875
2018-08-10T06:13:18.375Z,61.875
2018-08-10T06:14:34.163Z,61.875
2018-08-10T06:15:50.053Z,61.875
2018-08-10T06:17:05.946Z,61.875
2018-08-10T06:18:21.830Z,61.875
2018-08-10T06:19:37.861Z,67.5
2018-08-10T06:20:54.701Z,73.125
2018-08-10T06:22:10.560Z,73.125
2018-08-10T06:23:26.501Z,78.75
2018-08-10T06:24:42.453Z,78.75
2018-08-10T06:25:58.324Z,78.75
2018-08-10T06:27:14.338Z,78.75
2018-08-10T06:28:30.291Z,73.125
2018-08-10T06:29:46.191Z,67.5
2018-08-10T06:31:03.028Z,67.5
2018-08-10T06:32:18.991Z,73.125
2018-08-10T06:33:35.057Z,78.75
2018-08-10T06:34:50.901Z,84.375
2018-08-10T06:36:06.790Z,84.375
2018-08-10T06:37:22.665Z,90
2018-08-10T06:38:38.551Z,95.625
2018-08-10T06:39:54.641Z,95.625
2018-08-10T06:41:10.331Z,95.625
2018-08-10T06:42:26.189Z,95.625
2018-08-10T06:43:42.188Z,95.625
2018-08-10T06:44:58.159Z,95.625
2018-08-10T06:46:13.944Z,95.625
2018-08-10T06:47:29.840Z,95.625
2018-08-10T06:48:45.756Z,95.625
2018-08-10T06:50:01.640Z,95.625
2018-08-10T06:51:17.556Z,95.625
2018-08-10T06:52:33.414Z,95.625
2018-08-10T06:53:49.309Z,101.25
2018-08-10T06:55:05.347Z,101.25
2018-08-10T06:56:21.264Z,95.625
2018-08-10T06:57:37.172Z,95.625
2018-08-10T06:58:54.046Z,95.625
2018-08-10T07:00:09.913Z,95.625
2018-08-10T07:01:25.775Z,95.625
2018-08-10T07:02:41.660Z,95.625
2018-08-10T07:03:57.528Z,101.25
2018-08-10T07:05:13.413Z,106.875
2018-08-10T07:06:29.401Z,112.5
2018-08-10T07:07:45.365Z,112.5
2018-08-10T07:09:01.198Z,112.5
2018-08-10T07:10:17.059Z,112.5
2018-08-10T07:11:32.908Z,118.125
2018-08-10T07:12:48.938Z,123.75
2018-08-10T07:14:04.822Z,123.75
2018-08-10T07:15:20.709Z,123.75
2018-08-10T07:16:36.592Z,129.375
2018-08-10T07:17:52.452Z,135
2018-08-10T07:19:08.364Z,129.375
2018-08-10T07:20:24.229Z,129.375
2018-08-10T07:21:40.128Z,118.125
2018-08-10T07:22:56.026Z,112.5
2018-08-10T07:24:12.981Z,106.875
2018-08-10T07:25:28.853Z,101.25
2018-08-10T07:26:44.821Z,95.625
2018-08-10T07:28:00.745Z,90
2018-08-10T07:29:16.643Z,84.375
2018-08-10T07:30:32.531Z,84.375
2018-08-10T07:31:48.419Z,78.75
2018-08-10T07:33:04.319Z,84.375
2018-08-10T07:34:20.265Z,90
2018-08-10T07:35:36.172Z,90
2018-08-10T07:36:52.091Z,95.625
2018-08-10T07:38:08.240Z,95.625
2018-08-10T07:39:24.261Z,101.25
2018-08-10T07:40:40.404Z,106.875
2018-08-10T07:41:56.493Z,112.5
2018-08-10T07:43:12.566Z,118.125
2018-08-10T07:44:28.799Z,123.75
2018-08-10T07:45:44.905Z,129.375
2018-08-10T07:47:00.878Z,129.375
2018-08-10T07:48:17.021Z,129.375
2018-08-10T07:49:33.182Z,129.375
2018-08-10T07:50:49.495Z,129.375
2018-08-10T07:52:05.609Z,135
2018-08-10T07:53:21.627Z,140.625
2018-08-10T07:54:37.645Z,151.875
2018-08-10T07:55:53.623Z,157.5
2018-08-10T07:57:09.538Z,151.875
2018-08-10T07:58:25.398Z,146.25
2018-08-10T07:59:41.316Z,146.25
2018-08-10T08:00:58.241Z,146.25
2018-08-10T08:02:14.124Z,146.25
2018-08-10T08:03:30.507Z,140.625
2018-08-10T08:04:46.718Z,140.625
2018-08-10T08:07:43.526Z,146.25
2018-08-10T08:08:59.652Z,163.125
2018-08-10T08:10:15.937Z,174.375
2018-08-10T08:11:31.940Z,168.75
2018-08-10T08:12:47.983Z,168.75
2018-08-10T08:14:04.175Z,168.75
2018-08-10T08:15:20.269Z,168.75
2018-08-10T08:16:36.617Z,168.75
2018-08-10T08:17:52.792Z,174.375
2018-08-10T08:19:08.895Z,180
2018-08-10T08:20:24.958Z,185.625
2018-08-10T08:21:40.916Z,191.25
2018-08-10T08:22:57.103Z,191.25
2018-08-10T08:24:13.363Z,185.625
2018-08-10T08:25:29.589Z,180
2018-08-10T08:26:45.774Z,185.625
2018-08-10T08:28:02.124Z,191.25
2018-08-10T08:29:18.212Z,191.25
2018-08-10T08:30:34.152Z,191.25
2018-08-10T08:31:50.013Z,191.25
2018-08-10T08:33:05.888Z,191.25
2018-08-10T08:34:21.796Z,196.875
2018-08-10T08:35:38.710Z,196.875
2018-08-10T08:36:54.646Z,191.25
2018-08-10T08:38:10.534Z,185.625
2018-08-10T08:39:26.408Z,180
2018-08-10T08:40:42.287Z,174.375
2018-08-10T08:41:58.216Z,180
2018-08-10T08:43:14.117Z,185.625
2018-08-10T08:44:30.012Z,191.25
2018-08-10T08:45:46.234Z,196.875
2018-08-10T08:47:01.773Z,208.125
2018-08-10T08:48:17.625Z,219.375
2018-08-10T08:49:33.543Z,225
2018-08-10T08:50:49.456Z,225
2018-08-10T08:52:05.328Z,225
2018-08-10T08:53:21.267Z,236.25
2018-08-10T08:54:37.159Z,241.875
2018-08-10T08:55:53.109Z,253.125
2018-08-10T08:57:09.039Z,264.375
2018-08-10T08:58:24.895Z,275.625
2018-08-10T08:59:40.774Z,281.25
2018-08-10T09:00:56.781Z,298.125
2018-08-10T09:02:13.654Z,320.625
2018-08-10T09:03:29.573Z,348.75
2018-08-10T09:04:45.476Z,365.625
2018-08-10T09:06:01.347Z,388.125
2018-08-10T09:07:17.341Z,405
2018-08-10T09:08:33.202Z,421.875
2018-08-10T09:09:49.087Z,438.75
2018-08-10T09:11:05.016Z,427.5
2018-08-10T09:12:20.889Z,421.875
2018-08-10T09:13:37.002Z,427.5
2018-08-10T09:14:52.925Z,427.5
2018-08-10T09:16:08.800Z,433.125
2018-08-10T09:17:24.692Z,433.125
2018-08-10T09:18:40.606Z,433.125
2018-08-10T09:19:56.482Z,427.5
2018-08-10T09:21:12.379Z,416.25
2018-08-10T09:22:28.238Z,410.625
2018-08-10T09:23:44.136Z,416.25
2018-08-10T09:25:00.028Z,405
2018-08-10T09:26:15.912Z,416.25
2018-08-10T09:27:31.828Z,405
2018-08-10T09:28:47.732Z,399.375
2018-08-10T09:30:03.653Z,399.375
2018-08-10T09:31:19.552Z,399.375
2018-08-10T09:32:35.468Z,399.375
2018-08-10T09:33:51.396Z,405
2018-08-10T09:35:07.313Z,421.875
2018-08-10T09:36:23.215Z,444.375
2018-08-10T09:37:39.117Z,466.875
2018-08-10T09:38:55.024Z,478.125
2018-08-10T09:40:10.936Z,466.875
2018-08-10T09:41:26.828Z,478.125
2018-08-10T09:42:42.767Z,472.5
2018-08-10T09:43:58.708Z,478.125
2018-08-10T09:45:14.659Z,495
2018-08-10T09:46:30.522Z,500.625
2018-08-10T09:47:46.457Z,511.875
2018-08-10T09:49:02.357Z,506.25
2018-08-10T09:50:18.321Z,500.625
2018-08-10T09:51:34.227Z,478.125
2018-08-10T09:52:50.156Z,489.375
2018-08-10T09:54:06.024Z,489.375
2018-08-10T09:55:21.942Z,466.875
2018-08-10T09:56:37.998Z,450
2018-08-10T09:57:53.939Z,438.75
2018-08-10T09:59:09.889Z,421.875
2018-08-10T10:00:25.863Z,388.125
2018-08-10T10:01:41.797Z,365.625
2018-08-10T10:02:57.700Z,365.625
2018-08-10T10:04:13.586Z,388.125
2018-08-10T10:05:29.546Z,421.875
2018-08-10T10:06:45.489Z,416.25
2018-08-10T10:08:02.375Z,421.875
2018-08-10T10:09:19.280Z,421.875
2018-08-10T10:10:36.166Z,433.125
2018-08-10T10:11:52.110Z,416.25
2018-08-10T10:13:08.047Z,461.25
2018-08-10T10:14:23.996Z,472.5
2018-08-10T10:15:39.914Z,461.25
2018-08-10T10:16:55.856Z,478.125
2018-08-10T10:18:11.839Z,483.75
2018-08-10T10:19:27.851Z,506.25
2018-08-10T10:20:43.807Z,517.5
2018-08-10T10:21:59.748Z,517.5
2018-08-10T10:23:15.637Z,500.625
2018-08-10T10:24:31.598Z,472.5
2018-08-10T10:25:47.524Z,466.875
2018-08-10T10:27:03.455Z,511.875
2018-08-10T10:28:19.325Z,517.5
2018-08-10T10:29:35.432Z,528.75
2018-08-10T10:30:51.473Z,540
2018-08-10T10:32:07.377Z,517.5
2018-08-10T10:33:23.292Z,500.625
2018-08-10T10:34:39.202Z,495
2018-08-10T10:35:55.103Z,495
2018-08-10T10:37:11.015Z,523.125
2018-08-10T10:38:26.949Z,528.75
2018-08-10T10:39:42.860Z,556.875
2018-08-10T10:40:58.767Z,562.5
2018-08-10T10:42:14.652Z,562.5
2018-08-10T10:43:30.521Z,551.25
2018-08-10T10:44:46.464Z,545.625
2018-08-10T10:46:02.379Z,511.875
2018-08-10T10:47:18.298Z,500.625
2018-08-10T10:48:34.190Z,472.5
2018-08-10T10:49:50.049Z,444.375
2018-08-10T10:51:05.958Z,427.5
2018-08-10T10:52:21.850Z,421.875
2018-08-10T10:53:37.903Z,416.25
2018-08-10T10:54:53.798Z,405
2018-08-10T10:56:09.686Z,405
2018-08-10T10:57:25.546Z,410.625
2018-08-10T10:58:41.488Z,405
2018-08-10T10:59:57.398Z,388.125
2018-08-10T11:01:13.322Z,382.5
2018-08-10T11:02:29.231Z,388.125
2018-08-10T11:03:45.107Z,388.125
2018-08-10T11:05:01.030Z,382.5
2018-08-10T11:06:16.967Z,376.875
2018-08-10T11:07:32.829Z,382.5
2018-08-10T11:08:48.778Z,388.125
2018-08-10T11:10:04.726Z,388.125
2018-08-10T11:11:20.714Z,371.25
2018-08-10T11:12:36.599Z,376.875
2018-08-10T11:13:52.460Z,393.75
2018-08-10T11:15:08.353Z,410.625
2018-08-10T11:16:24.249Z,450
2018-08-10T11:17:40.153Z,472.5
2018-08-10T11:18:56.084Z,500.625
2018-08-10T11:20:11.997Z,540
2018-08-10T11:21:27.942Z,534.375
2018-08-10T11:22:43.798Z,562.5
2018-08-10T11:23:59.745Z,528.75
2018-08-10T11:25:15.735Z,528.75
2018-08-10T11:26:31.563Z,528.75
2018-08-10T11:27:47.480Z,483.75
2018-08-10T11:29:03.387Z,511.875
2018-08-10T11:30:19.288Z,478.125
2018-08-10T11:31:35.298Z,506.25
2018-08-10T11:32:51.192Z,511.875
2018-08-10T11:34:07.113Z,534.375
2018-08-10T11:35:23.012Z,534.375
2018-08-10T11:36:38.939Z,540
2018-08-10T11:37:54.823Z,556.875
2018-08-10T11:39:10.734Z,568.125
2018-08-10T11:40:26.636Z,579.375
2018-08-10T11:41:42.540Z,585
2018-08-10T11:42:58.476Z,551.25
2018-08-10T11:45:55.283Z,556.875
2018-08-10T11:47:11.292Z,545.625
2018-08-10T11:48:27.215Z,534.375
2018-08-10T11:49:43.103Z,511.875
2018-08-10T11:50:59.011Z,500.625
2018-08-10T11:52:14.917Z,489.375
2018-08-10T11:53:30.825Z,489.375
2018-08-10T11:54:46.723Z,489.375
2018-08-10T11:56:02.630Z,483.75
2018-08-10T11:57:18.513Z,489.375
2018-08-10T11:58:34.520Z,489.375
2018-08-10T11:59:50.460Z,495
2018-08-10T12:01:06.319Z,489.375
2018-08-10T12:02:22.221Z,495
2018-08-10T12:03:38.161Z,506.25
2018-08-10T12:04:54.103Z,506.25
2018-08-10T12:06:10.113Z,545.625
2018-08-10T12:07:26.026Z,495
2018-08-10T12:08:42.011Z,517.5
2018-08-10T12:09:57.947Z,511.875
2018-08-10T12:11:13.864Z,511.875
2018-08-10T12:12:29.812Z,495
2018-08-10T12:13:45.730Z,517.5
2018-08-10T12:15:01.658Z,506.25
2018-08-10T12:16:17.541Z,483.75
2018-08-10T12:17:33.525Z,500.625
2018-08-10T12:18:49.480Z,500.625
2018-08-10T12:20:05.424Z,511.875
2018-08-10T12:21:21.317Z,523.125
2018-08-10T12:22:37.220Z,528.75
2018-08-10T12:23:53.141Z,540
2018-08-10T12:25:09.054Z,517.5
2018-08-10T12:26:24.989Z,517.5
2018-08-10T12:27:40.953Z,506.25
2018-08-10T12:28:57.845Z,517.5
2018-08-10T12:30:14.909Z,528.75
2018-08-10T12:31:30.677Z,534.375
2018-08-10T12:32:46.579Z,517.5
2018-08-10T12:34:02.552Z,534.375
2018-08-10T12:35:18.499Z,523.125
2018-08-10T12:36:34.404Z,523.125
2018-08-10T12:37:50.286Z,540
2018-08-10T12:39:06.210Z,545.625
2018-08-10T12:40:22.147Z,568.125
2018-08-10T12:41:38.113Z,568.125
2018-08-10T12:42:53.986Z,573.75
2018-08-10T12:44:09.904Z,579.375
2018-08-10T12:45:25.796Z,585
2018-08-10T12:46:41.770Z,573.75
2018-08-10T12:47:57.619Z,573.75
2018-08-10T12:49:13.530Z,579.375
2018-08-10T12:50:29.521Z,568.125
2018-08-10T12:51:45.403Z,573.75
2018-08-10T12:53:01.373Z,579.375
2018-08-10T12:54:17.260Z,573.75
2018-08-10T12:55:33.148Z,590.625
2018-08-10T12:56:50.061Z,618.75
2018-08-10T12:58:06.045Z,618.75
2018-08-10T12:59:21.978Z,613.125
2018-08-10T13:00:37.875Z,607.5
2018-08-10T13:01:53.880Z,630
2018-08-10T13:03:09.823Z,675
2018-08-10T13:04:25.709Z,703.125
2018-08-10T13:05:41.628Z,703.125
2018-08-10T13:06:57.575Z,691.875
2018-08-10T13:08:13.520Z,691.875
2018-08-10T13:09:29.434Z,669.375
2018-08-10T13:10:45.486Z,680.625
2018-08-10T13:12:01.249Z,680.625
2018-08-10T13:13:17.204Z,618.75
2018-08-10T13:14:33.138Z,630
2018-08-10T13:15:49.070Z,646.875
2018-08-10T13:17:05.057Z,658.125
2018-08-10T13:18:21.014Z,641.25
2018-08-10T13:19:36.891Z,641.25
2018-08-10T13:20:52.807Z,618.75
2018-08-10T13:22:08.739Z,585
2018-08-10T13:23:24.658Z,556.875
2018-08-10T13:24:40.571Z,556.875
2018-08-10T13:27:37.191Z,585
2018-08-10T13:28:53.100Z,579.375
2018-08-10T13:30:08.997Z,568.125
2018-08-10T13:31:24.963Z,562.5
2018-08-10T13:32:40.942Z,562.5
2018-08-10T13:33:56.987Z,562.5
2018-08-10T13:35:12.941Z,528.75
2018-08-10T13:36:28.892Z,500.625
2018-08-10T13:37:44.814Z,495
2018-08-10T13:39:00.738Z,495
2018-08-10T13:40:16.660Z,511.875
2018-08-10T13:41:32.695Z,534.375
2018-08-10T13:42:48.611Z,528.75
2018-08-10T13:44:04.560Z,523.125
2018-08-10T13:45:20.514Z,534.375
2018-08-10T13:46:36.499Z,551.25
2018-08-10T13:47:52.433Z,585
2018-08-10T13:49:08.335Z,573.75
2018-08-10T13:50:24.346Z,556.875
2018-08-10T13:51:40.286Z,534.375
2018-08-10T13:52:56.209Z,506.25
2018-08-10T13:54:12.149Z,495
2018-08-10T13:55:28.113Z,511.875
2018-08-10T13:56:44.074Z,489.375
2018-08-10T13:58:00.000Z,461.25
2018-08-10T13:59:15.936Z,495
2018-08-10T14:00:31.898Z,483.75
2018-08-10T14:01:47.832Z,450
2018-08-10T14:03:03.756Z,450
2018-08-10T14:04:19.849Z,444.375
2018-08-10T14:05:35.804Z,438.75
2018-08-10T14:06:51.758Z,444.375
2018-08-10T14:08:07.774Z,444.375
2018-08-10T14:09:23.712Z,433.125
2018-08-10T14:10:39.670Z,416.25
2018-08-10T14:11:55.651Z,405
2018-08-10T14:13:11.651Z,399.375
2018-08-10T14:14:27.620Z,399.375
2018-08-10T14:15:43.612Z,399.375
2018-08-10T14:16:59.533Z,388.125
2018-08-10T14:18:15.449Z,382.5
2018-08-10T14:19:31.418Z,376.875
2018-08-10T14:20:47.346Z,376.875
2018-08-10T14:22:03.290Z,376.875
2018-08-10T14:23:19.285Z,393.75
2018-08-10T14:24:35.357Z,388.125
2018-08-10T14:25:51.281Z,399.375
2018-08-10T14:27:07.304Z,410.625
2018-08-10T14:28:23.361Z,405
2018-08-10T14:29:39.244Z,388.125
2018-08-10T14:30:55.182Z,371.25
2018-08-10T14:32:11.178Z,365.625
2018-08-10T14:33:27.310Z,348.75
2018-08-10T14:34:43.184Z,337.5
2018-08-10T14:35:59.124Z,331.875
2018-08-10T14:37:15.048Z,326.25
2018-08-10T14:38:31.064Z,331.875
2018-08-10T14:39:46.979Z,337.5
2018-08-10T14:41:02.947Z,348.75
2018-08-10T14:42:18.886Z,354.375
2018-08-10T14:43:34.845Z,365.625
2018-08-10T14:44:50.827Z,371.25
2018-08-10T14:46:06.779Z,376.875
2018-08-10T14:47:22.885Z,388.125
2018-08-10T14:48:38.721Z,382.5
2018-08-10T14:49:54.759Z,376.875
2018-08-10T14:51:10.747Z,371.25
2018-08-10T14:52:26.695Z,365.625
2018-08-10T14:53:42.680Z,354.375
2018-08-10T14:54:58.564Z,354.375
2018-08-10T14:56:14.545Z,354.375
2018-08-10T14:57:30.455Z,360
2018-08-10T14:58:46.363Z,360
2018-08-10T15:00:02.335Z,360
2018-08-10T15:01:18.296Z,360
2018-08-10T15:02:34.354Z,348.75
2018-08-10T15:03:50.427Z,343.125
2018-08-10T15:05:06.404Z,343.125
2018-08-10T15:06:22.540Z,337.5
2018-08-10T15:07:38.583Z,337.5
2018-08-10T15:08:54.609Z,348.75
2018-08-10T15:10:10.618Z,365.625
2018-08-10T15:11:26.609Z,376.875
2018-08-10T15:12:42.939Z,421.875
2018-08-10T15:13:58.506Z,433.125
2018-08-10T15:15:14.556Z,433.125
2018-08-10T15:16:30.502Z,421.875
2018-08-10T15:17:46.517Z,421.875
2018-08-10T15:19:02.458Z,438.75
2018-08-10T15:20:18.437Z,433.125
2018-08-10T15:21:34.313Z,410.625
2018-08-10T15:22:50.244Z,371.25
2018-08-10T15:24:06.252Z,326.25
2018-08-10T15:25:22.223Z,298.125
2018-08-10T15:26:38.188Z,270
2018-08-10T15:27:54.204Z,247.5
2018-08-10T15:29:10.159Z,225
2018-08-10T15:30:26.110Z,213.75
2018-08-10T15:31:42.076Z,208.125
2018-08-10T15:32:58.047Z,208.125
2018-08-10T15:34:13.987Z,208.125
2018-08-10T15:35:29.884Z,202.5
2018-08-10T15:36:45.852Z,202.5
2018-08-10T15:38:01.750Z,196.875
2018-08-10T15:39:17.773Z,202.5
2018-08-10T15:40:33.656Z,202.5
2018-08-10T15:41:49.651Z,208.125
2018-08-10T15:43:05.537Z,213.75
2018-08-10T15:44:21.487Z,208.125
2018-08-10T15:45:37.343Z,202.5
2018-08-10T15:46:53.339Z,196.875
2018-08-10T15:48:09.342Z,191.25
2018-08-10T15:49:25.327Z,191.25
2018-08-10T15:50:41.248Z,191.25
2018-08-10T15:51:57.238Z,185.625
2018-08-10T15:53:13.234Z,180
2018-08-10T15:54:29.230Z,174.375
2018-08-10T15:55:45.149Z,163.125
2018-08-10T15:57:01.132Z,157.5
2018-08-10T15:58:17.298Z,151.875
2018-08-10T15:59:33.247Z,151.875
2018-08-10T16:00:49.168Z,146.25
2018-08-10T16:02:05.181Z,146.25
2018-08-10T16:03:21.194Z,146.25
2018-08-10T16:04:37.135Z,146.25
2018-08-10T16:05:53.107Z,140.625
2018-08-10T16:07:09.083Z,140.625
2018-08-10T16:08:25.195Z,140.625
2018-08-10T16:09:41.219Z,135
2018-08-10T16:10:57.267Z,135
2018-08-10T16:12:13.324Z,135
2018-08-10T16:13:29.283Z,135
2018-08-10T16:14:45.185Z,135
2018-08-10T16:16:01.094Z,135
2018-08-10T16:17:17.068Z,135
2018-08-10T16:18:33.089Z,135
2018-08-10T16:19:49.036Z,140.625
2018-08-10T16:21:04.994Z,140.625
2018-08-10T16:22:20.872Z,146.25
2018-08-10T16:23:36.881Z,151.875
2018-08-10T16:24:52.870Z,151.875
2018-08-10T16:26:08.767Z,151.875
2018-08-10T16:27:24.796Z,151.875
2018-08-10T16:28:40.845Z,151.875
2018-08-10T16:29:56.781Z,157.5
2018-08-10T16:31:12.778Z,163.125
2018-08-10T16:32:28.654Z,168.75
2018-08-10T16:33:44.569Z,163.125
2018-08-10T16:35:00.513Z,168.75
2018-08-10T16:36:16.480Z,168.75
2018-08-10T16:37:32.417Z,168.75
2018-08-10T16:38:48.337Z,174.375
2018-08-10T16:40:04.272Z,196.875
2018-08-10T16:41:20.287Z,191.25
2018-08-10T16:42:36.260Z,191.25
2018-08-10T16:43:52.211Z,180
2018-08-10T16:45:08.197Z,180